Time;durP1;ratioP1;P1;durP2;ratioP2;P2;SDS_P1;SDS_P2;PMS_P1;PMS_P2;Temp;Humidity;BMP_temperature;BMP_pressure;BME280_temperature;BME280_humidity;BME280_pressure;Samples;Min_cycle;Max_cycle;Signal;HPM_P1;HPM_P2
2023/10/25 00:01:35;;;;;;;7.72;5.57;;;;;;;6.59;62.29;100001.69;4978432;28;20038;-66
2023/10/25 00:04:00;;;;;;;8.07;4.70;;;;;;;6.63;62.19;100003.28;4979135;28;20073;-67
2023/10/25 00:06:26;;;;;;;16.30;5.50;;;;;;;6.69;61.96;99993.50;4978826;28;20122;-68
2023/10/25 00:08:52;;;;;;;8.65;5.50;;;;;;;6.60;62.22;99990.44;4978576;28;20497;-68
2023/10/25 00:11:17;;;;;;;8.27;5.13;;;;;;;6.61;62.31;99997.28;4975571;28;20602;-68
2023/10/25 00:13:43;;;;;;;10.15;5.68;;;;;;;6.55;62.57;99994.91;4978881;28;20044;-65
2023/10/25 00:16:08;;;;;;;11.70;5.88;;;;;;;6.57;62.20;100000.91;4976911;28;20038;-63
2023/10/25 00:18:34;;;;;;;7.60;5.22;;;;;;;6.58;62.27;99998.25;4978445;28;20523;-64
2023/10/25 00:20:59;;;;;;;8.93;4.90;;;;;;;6.50;62.14;99995.09;4981386;28;20140;-75
2023/10/25 00:23:25;;;;;;;9.23;5.55;;;;;;;6.52;62.16;99998.47;4975092;28;20046;-69
2023/10/25 00:25:51;;;;;;;13.65;5.93;;;;;;;6.56;62.47;100004.41;4981341;28;20042;-69
2023/10/25 00:28:17;;;;;;;10.18;5.32;;;;;;;6.56;61.87;99994.03;4973397;28;20038;-69
2023/10/25 00:30:44;;;;;;;11.73;6.00;;;;;;;6.55;62.10;99992.31;4987879;28;20132;-70
2023/10/25 00:33:10;;;;;;;9.80;6.03;;;;;;;6.47;62.74;99998.66;4977385;28;20373;-69
2023/10/25 00:35:36;;;;;;;9.63;5.55;;;;;;;6.50;62.68;99987.31;4981893;28;20467;-70
2023/10/25 00:38:01;;;;;;;12.77;6.30;;;;;;;6.55;62.69;99995.78;4987079;28;20036;-69
2023/10/25 00:40:27;;;;;;;9.38;5.18;;;;;;;6.49;62.86;99996.84;4973123;28;20130;-70
2023/10/25 00:42:52;;;;;;;8.90;5.68;;;;;;;6.63;62.74;99995.50;4969382;28;20049;-69
2023/10/25 00:45:18;;;;;;;10.80;5.63;;;;;;;6.48;62.99;99991.69;4980311;28;20038;-69
2023/10/25 00:47:43;;;;;;;16.60;6.55;;;;;;;6.43;63.36;99989.28;4980788;28;20042;-70
2023/10/25 00:50:17;;;;;;;13.45;6.47;;;;;;;6.55;62.74;99998.38;4980499;28;20161;-70
2023/10/25 00:52:43;;;;;;;10.63;5.40;;;;;;;6.60;62.72;99993.03;4994381;28;20046;-69
2023/10/25 00:55:09;;;;;;;13.75;5.20;;;;;;;6.41;62.86;99998.88;4978830;28;20029;-69
2023/10/25 00:57:35;;;;;;;8.90;5.72;;;;;;;6.48;62.55;99996.91;4978224;28;20046;-69
2023/10/25 01:00:01;;;;;;;8.55;4.95;;;;;;;6.57;62.10;99998.31;4976166;28;20136;-69
2023/10/25 01:02:27;;;;;;;10.32;6.10;;;;;;;6.51;62.45;99996.81;4974752;28;20529;-69
2023/10/25 01:04:53;;;;;;;10.27;5.57;;;;;;;6.43;62.65;99998.81;4986058;28;20041;-70
2023/10/25 01:07:18;;;;;;;8.25;5.55;;;;;;;6.45;62.50;99997.03;4973071;28;20831;-69
2023/10/25 01:09:44;;;;;;;10.13;6.38;;;;;;;6.21;63.26;99998.72;4981622;28;20057;-70
2023/10/25 01:12:10;;;;;;;8.80;5.43;;;;;;;6.47;62.59;99990.88;4973861;28;20034;-69
2023/10/25 01:14:36;;;;;;;8.82;5.05;;;;;;;6.39;62.46;99987.69;4968506;28;20093;-69
2023/10/25 01:17:02;;;;;;;10.80;5.88;;;;;;;6.45;62.22;99992.66;4985418;28;20030;-70
2023/10/25 01:19:28;;;;;;;9.68;5.45;;;;;;;6.33;62.93;99993.13;4984103;28;20058;-69
2023/10/25 01:21:54;;;;;;;12.45;5.22;;;;;;;6.49;62.13;99983.88;4978006;28;20160;-69
2023/10/25 01:24:21;;;;;;;9.63;5.38;;;;;;;6.31;62.91;99992.34;4973433;28;20066;-69
2023/10/25 01:26:46;;;;;;;13.63;6.30;;;;;;;6.29;62.73;100001.94;4978585;28;20065;-69
2023/10/25 01:29:12;;;;;;;8.13;5.20;;;;;;;6.32;62.90;99996.63;4976606;28;20069;-68
2023/10/25 01:31:37;;;;;;;9.27;5.13;;;;;;;6.16;63.22;99991.09;4989488;28;20037;-66
2023/10/25 01:34:03;;;;;;;8.35;5.38;;;;;;;6.22;63.05;99990.03;4989845;28;20066;-65
2023/10/25 01:36:28;;;;;;;15.05;5.65;;;;;;;6.36;62.49;99997.34;4978736;28;20630;-68
2023/10/25 01:38:54;;;;;;;12.30;5.90;;;;;;;6.31;62.43;100000.13;4979642;28;20550;-70
2023/10/25 01:41:19;;;;;;;14.35;5.60;;;;;;;6.19;63.00;99996.16;4977438;28;20022;-67
2023/10/25 01:43:46;;;;;;;9.80;5.20;;;;;;;6.19;62.92;99993.56;4981140;28;20044;-67
2023/10/25 01:46:11;;;;;;;11.18;5.43;;;;;;;6.35;62.35;99996.53;4978757;28;20042;-66
2023/10/25 01:48:37;;;;;;;12.93;5.78;;;;;;;6.27;62.02;99993.31;4994645;28;20052;-66
2023/10/25 01:51:06;;;;;;;8.27;5.50;;;;;;;6.33;61.86;99995.72;4989452;28;20038;-66
2023/10/25 01:53:37;;;;;;;13.90;6.43;;;;;;;6.20;62.57;99994.44;4985431;28;20759;-66
2023/10/25 01:56:03;;;;;;;7.72;4.75;;;;;;;6.30;62.14;99998.41;4991109;28;20086;-67
2023/10/25 01:58:28;;;;;;;10.00;4.97;;;;;;;5.78;63.51;100002.81;4980300;28;20095;-78
2023/10/25 02:00:54;;;;;;;8.93;6.05;;;;;;;6.22;62.33;99995.25;4998705;28;20427;-71
2023/10/25 02:03:19;;;;;;;9.13;4.90;;;;;;;6.11;62.52;99992.19;4967070;28;20038;-66
2023/10/25 02:05:45;;;;;;;9.23;5.50;;;;;;;6.12;62.61;99993.84;4992405;28;20129;-70
2023/10/25 02:08:11;;;;;;;10.50;5.40;;;;;;;6.23;61.94;99989.13;4979597;28;20037;-67
2023/10/25 02:10:36;;;;;;;16.08;5.32;;;;;;;6.13;62.27;99990.34;4987134;28;20038;-67
2023/10/25 02:13:02;;;;;;;9.00;4.53;;;;;;;6.15;61.86;99984.22;4982371;28;20270;-65
2023/10/25 02:15:29;;;;;;;16.65;5.47;;;;;;;6.00;62.69;99990.78;4980661;28;20041;-69
2023/10/25 02:17:54;;;;;;;10.85;5.00;;;;;;;6.04;62.59;99989.78;4983767;28;20041;-71
2023/10/25 02:20:20;;;;;;;13.70;5.05;;;;;;;6.01;62.47;99987.28;4992671;28;20048;-73
2023/10/25 02:22:45;;;;;;;15.10;5.15;;;;;;;6.06;62.38;99982.81;4972803;28;20034;-73
2023/10/25 02:25:11;;;;;;;11.48;5.55;;;;;;;6.03;62.37;99988.09;4979568;28;20030;-67
2023/10/25 02:27:36;;;;;;;7.30;5.20;;;;;;;5.95;62.56;99976.28;4980807;28;20050;-70
2023/10/25 02:30:02;;;;;;;9.43;4.68;;;;;;;5.73;63.54;99978.78;4988189;28;20022;-71
2023/10/25 02:32:28;;;;;;;8.40;5.05;;;;;;;5.98;62.87;99971.84;4984483;28;20116;-70
2023/10/25 02:34:54;;;;;;;12.32;4.78;;;;;;;6.08;62.12;99972.34;4983783;28;20117;-70
2023/10/25 02:37:19;;;;;;;7.60;4.55;;;;;;;5.84;62.89;99981.88;4983035;28;20050;-70
2023/10/25 02:39:45;;;;;;;8.07;4.55;;;;;;;6.05;62.36;99983.69;4982809;28;20019;-69
2023/10/25 02:42:12;;;;;;;15.30;6.88;;;;;;;5.99;62.63;99983.91;4980639;28;20048;-68
2023/10/25 02:44:38;;;;;;;11.63;4.53;;;;;;;5.94;62.37;99979.78;4981975;28;20100;-68
2023/10/25 02:47:06;;;;;;;11.00;5.10;;;;;;;5.55;63.65;99981.09;4988704;28;20277;-68
2023/10/25 02:49:33;;;;;;;8.63;3.95;;;;;;;5.54;63.53;99981.16;4979127;28;21352;-69
2023/10/25 02:51:59;;;;;;;8.18;4.72;;;;;;;5.80;62.95;99981.13;4986341;28;20161;-68
2023/10/25 02:54:24;;;;;;;9.05;5.35;;;;;;;5.94;62.26;99974.59;4975289;28;20106;-68
2023/10/25 02:56:50;;;;;;;6.95;4.57;;;;;;;5.80;63.15;99978.53;4988117;28;20030;-68
2023/10/25 02:59:16;;;;;;;9.30;4.82;;;;;;;5.94;61.92;99972.84;4979908;28;20500;-68
2023/10/25 03:01:42;;;;;;;7.82;4.40;;;;;;;5.91;61.63;99967.78;4980563;28;20658;-68
2023/10/25 03:04:08;;;;;;;11.70;5.25;;;;;;;5.90;61.83;99970.41;4991277;28;20157;-68
2023/10/25 03:06:33;;;;;;;9.57;4.68;;;;;;;5.80;62.46;99975.09;4979010;28;20400;-69
2023/10/25 03:08:59;;;;;;;9.02;5.22;;;;;;;5.82;62.20;99970.69;4982098;28;20033;-69
2023/10/25 03:11:24;;;;;;;6.80;3.95;;;;;;;5.76;62.92;99970.91;4979669;28;20035;-69
2023/10/25 03:13:50;;;;;;;9.93;4.95;;;;;;;5.78;62.41;99969.09;4979859;28;20129;-70
2023/10/25 03:16:15;;;;;;;7.13;4.60;;;;;;;5.78;61.94;99974.28;4985286;28;20489;-69
2023/10/25 03:18:41;;;;;;;11.57;4.53;;;;;;;5.78;62.31;99963.91;4979471;28;20290;-70
2023/10/25 03:21:06;;;;;;;13.65;5.30;;;;;;;5.80;62.20;99975.09;4986644;28;20505;-70
2023/10/25 03:23:32;;;;;;;7.40;4.72;;;;;;;5.83;62.25;99972.38;4977754;28;21093;-69
2023/10/25 03:26:08;;;;;;;8.38;4.55;;;;;;;5.56;63.45;99969.81;4981319;28;20080;-70
2023/10/25 03:28:34;;;;;;;7.90;4.07;;;;;;;5.79;62.28;99973.38;4976318;28;20684;-70
2023/10/25 03:31:09;;;;;;;10.65;4.50;;;;;;;5.74;62.56;99970.09;4981952;28;20548;-69
2023/10/25 03:33:36;;;;;;;7.40;4.32;;;;;;;5.86;62.10;99975.72;4975279;28;20049;-69
2023/10/25 03:36:01;;;;;;;12.23;4.07;;;;;;;5.72;61.99;99972.75;4990245;28;20041;-75
2023/10/25 03:38:27;;;;;;;7.75;5.00;;;;;;;5.85;62.02;99974.00;4980202;28;20066;-73
2023/10/25 03:41:04;;;;;;;9.65;3.83;;;;;;;5.83;62.19;99972.38;4976901;28;20121;-73
2023/10/25 03:43:31;;;;;;;9.63;5.10;;;;;;;5.48;63.18;99961.47;4977359;28;20686;-72
2023/10/25 03:45:56;;;;;;;8.23;4.05;;;;;;;5.65;62.56;99964.31;4970662;28;20538;-71
2023/10/25 03:48:22;;;;;;;7.97;4.70;;;;;;;5.56;62.93;99971.56;4977622;28;20038;-70
2023/10/25 03:50:49;;;;;;;9.18;3.75;;;;;;;5.62;62.37;99966.19;4963842;28;20101;-70
2023/10/25 03:53:14;;;;;;;8.25;4.70;;;;;;;5.44;63.15;99967.66;4982168;28;20154;-72
2023/10/25 03:55:40;;;;;;;6.88;3.60;;;;;;;5.59;62.58;99964.56;4966987;28;20030;-72
2023/10/25 03:58:05;;;;;;;10.95;5.00;;;;;;;5.74;61.76;99957.13;4981653;28;20033;-72
2023/10/25 04:00:31;;;;;;;9.30;4.13;;;;;;;5.60;62.14;99961.03;4976612;28;20054;-72
2023/10/25 04:02:56;;;;;;;7.45;4.10;;;;;;;5.48;62.48;99958.88;4980763;28;20509;-70
2023/10/25 04:05:22;;;;;;;10.02;5.07;;;;;;;5.54;62.90;99955.22;4975205;28;20045;-74
2023/10/25 04:07:50;;;;;;;9.00;5.45;;;;;;;5.59;62.62;99956.78;4980160;28;20039;-72
2023/10/25 04:10:15;;;;;;;8.77;4.97;;;;;;;5.64;61.91;99946.25;4969311;28;20036;-71
2023/10/25 04:12:41;;;;;;;7.57;4.78;;;;;;;5.64;62.05;99947.09;4983971;28;20408;-71
2023/10/25 04:15:06;;;;;;;13.73;4.22;;;;;;;5.44;62.62;99944.31;4985241;28;20045;-71
2023/10/25 04:17:32;;;;;;;8.68;5.00;;;;;;;5.52;62.62;99942.31;4978979;28;20061;-72
2023/10/25 04:19:57;;;;;;;12.80;5.25;;;;;;;5.50;62.39;99949.28;4989582;28;20037;-71
2023/10/25 04:22:23;;;;;;;9.55;4.18;;;;;;;5.65;61.67;99946.19;4978457;28;20038;-71
2023/10/25 04:24:48;;;;;;;6.10;4.43;;;;;;;5.60;61.48;99950.69;4976206;28;20511;-72
2023/10/25 04:27:14;;;;;;;14.70;5.68;;;;;;;5.55;61.32;99951.75;4980197;28;20096;-71
2023/10/25 04:29:39;;;;;;;9.13;5.22;;;;;;;5.51;61.48;99945.81;4975143;28;20253;-71
2023/10/25 04:32:05;;;;;;;13.10;5.05;;;;;;;5.38;62.09;99949.72;4978734;28;20038;-71
2023/10/25 04:34:30;;;;;;;9.68;5.03;;;;;;;5.48;61.64;99951.09;4977605;28;20100;-73
2023/10/25 04:36:56;;;;;;;8.90;4.47;;;;;;;5.46;61.81;99953.75;4973109;28;20126;-71
2023/10/25 04:39:21;;;;;;;14.40;5.10;;;;;;;5.49;61.68;99951.94;4981501;28;20038;-70
2023/10/25 04:41:47;;;;;;;15.45;5.15;;;;;;;5.30;62.45;99946.50;4984692;28;20042;-70
2023/10/25 04:44:14;;;;;;;14.38;4.93;;;;;;;5.30;61.89;99946.50;4977194;28;20104;-71
2023/10/25 04:46:40;;;;;;;8.25;4.53;;;;;;;5.50;61.52;99938.91;4976821;28;20092;-72
2023/10/25 04:49:05;;;;;;;6.57;4.32;;;;;;;5.53;61.88;99943.19;4977705;28;20038;-71
2023/10/25 04:51:30;;;;;;;15.48;5.40;;;;;;;5.52;61.63;99946.66;4977852;28;20033;-71
2023/10/25 04:53:56;;;;;;;6.15;4.50;;;;;;;5.53;61.50;99946.59;4977501;28;20504;-72
2023/10/25 04:56:23;;;;;;;11.40;4.68;;;;;;;5.47;61.49;99954.56;4975394;28;20511;-71
2023/10/25 04:58:48;;;;;;;10.15;5.20;;;;;;;5.48;62.02;99945.94;4962961;28;20045;-72
2023/10/25 05:01:14;;;;;;;10.07;4.93;;;;;;;5.41;62.37;99954.78;4979408;28;20034;-70
2023/10/25 05:03:41;;;;;;;9.07;4.78;;;;;;;5.41;61.93;99947.00;4974519;28;21270;-71
2023/10/25 05:06:07;;;;;;;9.43;5.10;;;;;;;5.43;61.86;99951.22;4982142;28;20156;-71
2023/10/25 05:08:34;;;;;;;8.45;4.00;;;;;;;5.50;61.80;99948.44;4978935;28;20121;-71
2023/10/25 05:11:03;;;;;;;8.57;4.60;;;;;;;5.43;62.15;99947.81;4967172;28;20141;-71
2023/10/25 05:13:29;;;;;;;15.25;4.70;;;;;;;5.45;61.83;99948.59;4978601;28;20336;-69
2023/10/25 05:15:55;;;;;;;9.85;5.10;;;;;;;5.36;62.41;99946.31;4980583;28;20112;-69
2023/10/25 05:18:21;;;;;;;11.65;4.95;;;;;;;5.49;61.76;99941.59;4981376;28;20692;-69
2023/10/25 05:20:55;;;;;;;9.35;4.53;;;;;;;5.43;61.97;99943.47;4981163;28;20031;-69
2023/10/25 05:23:22;;;;;;;11.02;4.60;;;;;;;5.30;62.46;99946.50;4982321;28;20038;-68
2023/10/25 05:25:48;;;;;;;8.68;4.57;;;;;;;5.14;62.80;99952.19;4982412;28;20118;-68
2023/10/25 05:28:13;;;;;;;6.43;4.88;;;;;;;5.40;61.98;99950.50;4989376;28;20129;-68
2023/10/25 05:30:39;;;;;;;8.25;4.45;;;;;;;5.37;61.80;99942.81;4981893;28;20496;-67
2023/10/25 05:33:07;;;;;;;10.65;4.55;;;;;;;5.27;62.04;99946.63;4982063;28;20049;-69
2023/10/25 05:35:33;;;;;;;8.57;4.90;;;;;;;5.37;61.77;99946.28;4978966;28;20480;-69
2023/10/25 05:37:59;;;;;;;11.55;4.72;;;;;;;5.20;62.40;99944.22;4980235;28;20117;-70
2023/10/25 05:40:26;;;;;;;10.15;4.07;;;;;;;5.28;62.25;99948.31;4977802;28;20042;-70
2023/10/25 05:42:57;;;;;;;12.32;5.38;;;;;;;5.33;61.92;99946.44;4988721;28;20037;-72
2023/10/25 05:45:23;;;;;;;9.68;5.50;;;;;;;5.32;61.57;99949.91;4980967;28;20410;-71
2023/10/25 05:47:49;;;;;;;9.75;4.50;;;;;;;5.35;61.73;99947.22;4985706;28;20034;-72
2023/10/25 05:50:14;;;;;;;5.05;3.85;;;;;;;5.30;61.87;99951.69;4985451;28;20591;-72
2023/10/25 05:52:44;;;;;;;10.68;5.65;;;;;;;5.26;61.88;99948.38;4969010;28;20069;-72
2023/10/25 05:55:14;;;;;;;11.77;4.60;;;;;;;5.15;62.30;99951.31;4981136;28;20519;-72
2023/10/25 05:57:40;;;;;;;12.10;5.18;;;;;;;5.31;62.08;99950.81;4977882;28;20034;-69
2023/10/25 06:00:06;;;;;;;7.95;4.72;;;;;;;5.31;61.83;99954.25;4983268;28;20048;-69
2023/10/25 06:02:33;;;;;;;7.50;4.88;;;;;;;5.33;61.93;99962.81;4980259;28;20120;-69
2023/10/25 06:05:00;;;;;;;11.70;6.43;;;;;;;5.29;61.92;99965.56;4982523;28;20030;-68
2023/10/25 06:07:27;;;;;;;13.35;5.63;;;;;;;5.32;61.67;99968.03;4977121;28;20049;-69
2023/10/25 06:09:55;;;;;;;12.40;5.53;;;;;;;5.30;61.69;99967.25;4981038;28;20048;-72
2023/10/25 06:12:22;;;;;;;10.50;4.95;;;;;;;5.15;62.34;99964.25;4980503;28;20038;-68
2023/10/25 06:14:48;;;;;;;11.20;5.40;;;;;;;5.31;62.25;99968.94;4984542;28;20029;-72
2023/10/25 06:17:16;;;;;;;9.35;4.97;;;;;;;5.18;62.54;99966.75;4987690;28;20504;-69
2023/10/25 06:19:41;;;;;;;9.77;5.25;;;;;;;5.29;62.04;99973.34;4981007;28;20461;-68
2023/10/25 06:22:07;;;;;;;7.80;4.47;;;;;;;5.18;62.20;99974.50;4979242;28;20027;-68
2023/10/25 06:24:32;;;;;;;9.13;5.05;;;;;;;5.28;62.26;99977.69;4986561;28;20034;-68
2023/10/25 06:27:00;;;;;;;7.95;5.25;;;;;;;5.36;62.14;99980.00;4979682;28;20602;-69
2023/10/25 06:29:26;;;;;;;7.85;4.35;;;;;;;5.35;62.08;99976.56;4985623;28;20042;-68
2023/10/25 06:31:52;;;;;;;8.27;4.80;;;;;;;5.41;61.71;99978.09;4981606;28;20038;-68
2023/10/25 06:34:21;;;;;;;8.40;4.65;;;;;;;5.41;61.95;99980.69;4985792;28;20115;-67
2023/10/25 06:36:47;;;;;;;10.40;4.70;;;;;;;5.39;61.81;99973.00;4976406;28;20360;-69
2023/10/25 06:39:13;;;;;;;6.13;4.60;;;;;;;5.32;62.66;99968.03;4985949;28;20041;-69
2023/10/25 06:41:39;;;;;;;10.73;4.60;;;;;;;5.48;61.96;99973.56;4977569;28;20037;-69
2023/10/25 06:44:07;;;;;;;9.55;4.93;;;;;;;5.59;62.07;99967.16;4978396;28;20121;-69
2023/10/25 06:46:33;;;;;;;19.13;4.90;;;;;;;5.60;61.95;99963.63;4978184;28;20493;-69
2023/10/25 06:48:58;;;;;;;9.95;4.68;;;;;;;5.62;61.83;99959.25;4979360;28;20117;-69
2023/10/25 06:51:25;;;;;;;6.40;3.67;;;;;;;5.58;61.93;99962.84;4968598;28;20034;-69
2023/10/25 06:53:51;;;;;;;10.82;4.68;;;;;;;5.70;61.82;99965.91;4975419;28;20082;-68
2023/10/25 06:56:17;;;;;;;9.82;4.75;;;;;;;5.73;61.67;99966.66;4981448;28;20034;-69
2023/10/25 06:58:43;;;;;;;10.05;5.57;;;;;;;5.63;61.82;99966.13;4976675;28;20068;-68
2023/10/25 07:01:11;;;;;;;6.72;4.53;;;;;;;5.69;61.57;99959.88;4974364;28;20636;-69
2023/10/25 07:03:44;;;;;;;10.13;4.80;;;;;;;5.79;61.53;99961.28;4978569;28;20600;-69
2023/10/25 07:06:11;;;;;;;8.98;5.25;;;;;;;5.83;61.61;99957.66;4985518;28;20038;-68
2023/10/25 07:08:37;;;;;;;7.38;4.53;;;;;;;5.91;61.32;99954.81;4976580;28;20131;-70
2023/10/25 07:11:03;;;;;;;9.30;4.70;;;;;;;5.99;61.26;99949.34;4977367;28;20129;-69
2023/10/25 07:13:32;;;;;;;7.50;4.25;;;;;;;6.24;61.99;99952.75;4977128;28;20029;-70
2023/10/25 07:15:58;;;;;;;8.40;4.93;;;;;;;7.62;60.35;99956.91;4978950;28;20480;-69
2023/10/25 07:18:24;;;;;;;7.88;5.45;;;;;;;8.63;56.11;99948.13;4978649;28;20049;-69
2023/10/25 07:20:52;;;;;;;8.02;5.15;;;;;;;9.50;53.38;99945.69;4975589;28;20045;-69
2023/10/25 07:23:18;;;;;;;9.75;4.18;;;;;;;10.05;50.50;99950.72;4989272;28;20037;-69
2023/10/25 07:25:44;;;;;;;7.40;3.67;;;;;;;9.91;50.73;99954.03;4988823;28;20636;-70
2023/10/25 07:28:10;;;;;;;8.05;3.60;;;;;;;9.93;50.24;99957.44;4977685;28;20045;-70
2023/10/25 07:30:36;;;;;;;6.45;3.22;;;;;;;9.90;50.42;99952.38;4977361;28;20115;-70
2023/10/25 07:33:01;;;;;;;5.75;3.28;;;;;;;9.44;50.29;99964.28;4985247;28;20038;-69
2023/10/25 07:35:27;;;;;;;8.05;3.00;;;;;;;9.03;51.96;99960.16;4986646;28;20030;-70
2023/10/25 07:37:52;;;;;;;8.80;3.35;;;;;;;9.25;52.77;99965.16;4976118;28;20044;-68
2023/10/25 07:40:18;;;;;;;8.05;3.05;;;;;;;10.19;49.93;99976.09;4978612;28;20129;-68
2023/10/25 07:42:44;;;;;;;10.70;5.53;;;;;;;11.74;47.47;99970.09;4975817;28;20073;-69
2023/10/25 07:45:09;;;;;;;4.82;3.38;;;;;;;13.03;45.17;99970.03;4985871;28;20034;-69
2023/10/25 07:47:35;;;;;;;10.93;5.70;;;;;;;13.48;43.42;99965.31;4976042;28;20105;-69
2023/10/25 07:50:00;;;;;;;12.13;5.78;;;;;;;13.93;41.67;99968.44;4977424;28;20140;-69
2023/10/25 07:52:27;;;;;;;6.63;4.10;;;;;;;14.93;39.70;99966.69;4978038;28;20052;-70
2023/10/25 07:54:53;;;;;;;6.13;2.40;;;;;;;15.26;38.86;99961.69;4977729;28;20045;-69
2023/10/25 07:57:19;;;;;;;7.20;2.80;;;;;;;15.32;37.51;99961.25;4977629;28;20093;-71
2023/10/25 07:59:45;;;;;;;4.15;2.38;;;;;;;15.53;38.86;99959.66;4978577;28;20030;-69
2023/10/25 08:02:11;;;;;;;5.15;2.63;;;;;;;15.04;38.52;99967.72;4975507;28;20867;-70
2023/10/25 08:04:36;;;;;;;7.35;2.63;;;;;;;15.00;39.18;99956.56;4978618;28;20034;-69
2023/10/25 08:07:02;;;;;;;8.20;2.03;;;;;;;14.96;38.85;99958.56;4967278;28;20532;-70
2023/10/25 08:09:27;;;;;;;5.65;2.35;;;;;;;14.89;37.85;99964.41;4980686;28;20069;-70
2023/10/25 08:11:53;;;;;;;5.80;2.72;;;;;;;14.58;40.29;99965.75;4978037;28;20045;-68
2023/10/25 08:14:19;;;;;;;3.63;2.20;;;;;;;14.35;39.00;99955.88;4985091;28;20076;-69
2023/10/25 08:16:45;;;;;;;8.90;3.00;;;;;;;14.06;40.12;99955.31;4980133;28;20113;-70
2023/10/25 08:19:11;;;;;;;8.73;2.90;;;;;;;14.32;41.46;99952.63;4974549;28;20037;-71
2023/10/25 08:21:37;;;;;;;6.00;3.05;;;;;;;14.50;40.28;99953.13;4975973;28;20045;-69
2023/10/25 08:24:05;;;;;;;9.07;3.08;;;;;;;14.37;40.30;99955.78;4985325;28;20531;-71
2023/10/25 08:26:35;;;;;;;4.85;2.83;;;;;;;14.54;39.11;99954.59;4982490;28;20041;-70
2023/10/25 08:29:02;;;;;;;6.82;3.42;;;;;;;14.52;40.20;99945.97;4977248;28;20544;-70
2023/10/25 08:31:27;;;;;;;4.72;3.45;;;;;;;14.56;39.62;99943.03;4976828;28;20041;-68
2023/10/25 08:33:53;;;;;;;4.90;2.83;;;;;;;14.30;40.57;99947.50;4975507;28;21056;-70
2023/10/25 08:36:18;;;;;;;6.05;2.17;;;;;;;14.07;40.68;99940.38;4981024;28;20041;-68
2023/10/25 08:38:44;;;;;;;6.63;2.58;;;;;;;13.96;41.91;99941.09;4982370;28;20378;-70
2023/10/25 08:41:10;;;;;;;4.85;2.40;;;;;;;13.66;42.00;99944.06;4983114;28;20062;-70
2023/10/25 08:43:37;;;;;;;7.53;3.45;;;;;;;13.82;44.57;99947.31;4980600;28;20057;-70
2023/10/25 08:46:03;;;;;;;4.38;3.08;;;;;;;13.71;43.45;99955.09;4981459;28;20030;-69
2023/10/25 08:48:29;;;;;;;9.93;3.08;;;;;;;13.68;41.34;99944.81;4983398;28;20166;-68
2023/10/25 08:50:56;;;;;;;11.55;3.75;;;;;;;13.21;42.34;99941.75;4980903;28;20046;-71
2023/10/25 08:53:25;;;;;;;6.35;3.08;;;;;;;13.15;43.65;99941.31;4978845;28;20046;-69
2023/10/25 08:55:52;;;;;;;10.30;3.50;;;;;;;13.34;42.77;99936.53;4995285;28;20537;-71
2023/10/25 08:58:19;;;;;;;3.45;2.92;;;;;;;13.27;42.14;99935.25;4972950;28;20481;-68
2023/10/25 09:00:46;;;;;;;8.18;2.83;;;;;;;13.21;43.66;99938.28;4970592;28;20046;-69
2023/10/25 09:03:30;;;;;;;7.97;4.00;;;;;;;13.19;44.13;99934.94;4971059;28;20133;-71
2023/10/25 09:05:55;;;;;;;6.57;2.70;;;;;;;13.19;42.83;99942.81;4980924;28;20129;-69
2023/10/25 09:08:21;;;;;;;5.38;2.45;;;;;;;12.91;43.82;99936.72;4982727;28;20140;-69
2023/10/25 09:11:08;;;;;;;6.82;2.70;;;;;;;13.23;43.46;99932.00;4979322;28;20645;-69
2023/10/25 09:13:41;;;;;;;7.40;3.25;;;;;;;12.93;43.77;99932.22;4984277;28;20121;-69
2023/10/25 09:16:10;;;;;;;5.00;3.22;;;;;;;12.79;44.43;99929.66;4996412;28;20042;-68
2023/10/25 09:18:38;;;;;;;8.27;3.47;;;;;;;12.92;44.39;99933.16;4979457;28;20050;-70
2023/10/25 09:21:05;;;;;;;12.60;3.45;;;;;;;12.97;44.30;99925.84;4980430;28;20514;-71
2023/10/25 09:23:31;;;;;;;4.88;3.05;;;;;;;12.93;44.43;99926.13;4983623;28;20053;-71
2023/10/25 09:26:01;;;;;;;4.13;3.10;;;;;;;12.75;45.26;99922.91;4978109;28;20038;-71
2023/10/25 09:28:27;;;;;;;4.13;2.47;;;;;;;12.99;45.69;99916.09;4983939;28;20105;-72
2023/10/25 09:30:54;;;;;;;3.53;2.30;;;;;;;13.14;43.34;99913.38;4965733;28;20042;-68
2023/10/25 09:33:19;;;;;;;6.03;3.15;;;;;;;13.40;43.52;99912.50;4987338;28;20038;-69
2023/10/25 09:35:46;;;;;;;8.85;3.65;;;;;;;12.99;44.70;99902.97;4979235;28;20182;-71
2023/10/25 09:38:11;;;;;;;7.60;3.10;;;;;;;12.74;44.88;99906.34;4997053;28;20076;-71
2023/10/25 09:40:41;;;;;;;7.30;2.58;;;;;;;12.86;43.91;99910.78;4985123;28;20493;-70
2023/10/25 09:43:14;;;;;;;4.72;3.22;;;;;;;13.51;43.56;99909.16;4989085;28;20081;-71
2023/10/25 09:45:42;;;;;;;5.20;2.42;;;;;;;13.68;43.54;99898.38;4978703;28;20034;-70
2023/10/25 09:48:13;;;;;;;7.50;2.90;;;;;;;12.95;44.19;99901.47;4981168;28;20049;-67
2023/10/25 09:50:44;;;;;;;4.00;2.92;;;;;;;13.04;46.07;99898.25;4980280;28;20045;-68
2023/10/25 09:53:28;;;;;;;4.57;2.50;;;;;;;12.67;44.01;99903.25;4980429;28;20496;-70
2023/10/25 09:56:00;;;;;;;7.60;2.28;;;;;;;12.51;45.36;99910.41;4965586;28;20035;-69
2023/10/25 09:58:27;;;;;;;3.88;2.38;;;;;;;12.86;45.18;99904.72;4994928;28;20034;-69
2023/10/25 10:00:52;;;;;;;8.30;2.67;;;;;;;13.00;44.66;99906.44;4979455;28;20042;-69
2023/10/25 10:03:34;;;;;;;3.08;1.83;;;;;;;13.22;44.26;99905.84;4996012;28;20034;-69
2023/10/25 10:06:14;;;;;;;8.32;2.63;;;;;;;13.40;43.63;99899.38;4978902;28;20493;-69
2023/10/25 10:08:47;;;;;;;3.88;2.83;;;;;;;13.11;44.07;99896.06;4979931;28;20184;-68
2023/10/25 10:11:21;;;;;;;9.07;2.83;;;;;;;12.72;45.23;99904.78;4978611;28;20988;-70
2023/10/25 10:14:25;;;;;;;3.45;2.45;;;;;;;12.37;45.59;99899.97;4992549;28;20034;-69
2023/10/25 10:16:51;;;;;;;7.25;2.92;;;;;;;11.83;47.49;99901.50;4981275;28;20385;-71
2023/10/25 10:19:16;;;;;;;3.83;2.90;;;;;;;11.93;47.92;99898.31;4981662;28;20041;-70
2023/10/25 10:22:05;;;;;;;8.75;3.45;;;;;;;11.62;47.95;99894.91;4980226;28;20041;-70
2023/10/25 10:24:48;;;;;;;5.93;3.85;;;;;;;11.44;47.89;99896.84;5010668;28;20042;-71
2023/10/25 10:27:15;;;;;;;5.28;3.47;;;;;;;11.12;47.96;99901.34;4978024;28;21028;-70
2023/10/25 10:29:42;;;;;;;5.10;2.85;;;;;;;11.20;48.28;99893.91;4984930;28;20096;-70
2023/10/25 10:32:09;;;;;;;5.68;3.45;;;;;;;11.19;49.07;99902.66;4979639;28;20184;-70
2023/10/25 10:34:43;;;;;;;12.55;4.57;;;;;;;11.05;48.33;99899.06;4988364;28;20517;-69
2023/10/25 10:37:13;;;;;;;5.70;4.03;;;;;;;11.09;49.60;99897.13;4981328;28;20038;-70
2023/10/25 10:40:01;;;;;;;7.38;3.55;;;;;;;11.09;49.52;99894.53;4992574;28;20098;-70
2023/10/25 10:42:33;;;;;;;7.00;3.70;;;;;;;11.04;50.42;99889.56;4993641;28;20042;-69
2023/10/25 10:45:03;;;;;;;6.38;3.55;;;;;;;11.30;49.35;99887.19;4980789;28;20109;-70
2023/10/25 10:47:41;;;;;;;8.00;2.83;;;;;;;10.96;49.13;99878.69;4980545;28;20050;-70
2023/10/25 10:50:12;;;;;;;4.82;3.53;;;;;;;10.81;49.15;99877.78;4979849;28;20342;-69
2023/10/25 10:52:43;;;;;;;5.65;3.17;;;;;;;10.76;49.74;99882.41;4979173;28;20062;-70
2023/10/25 10:55:13;;;;;;;5.90;3.35;;;;;;;10.90;49.79;99871.19;4990926;28;20034;-70
2023/10/25 10:57:40;;;;;;;8.35;3.55;;;;;;;10.62;49.36;99872.72;4980464;28;20034;-70
2023/10/25 11:00:08;;;;;;;9.75;3.88;;;;;;;10.56;50.64;99872.25;4985492;28;20041;-70
2023/10/25 11:02:37;;;;;;;6.55;3.92;;;;;;;10.69;51.20;99867.16;4977332;28;20060;-71
2023/10/25 11:05:07;;;;;;;8.57;3.53;;;;;;;10.60;50.54;99864.13;4981345;28;23922;-69
2023/10/25 11:07:33;;;;;;;7.60;4.13;;;;;;;10.68;50.54;99861.09;4979376;28;23461;-69
2023/10/25 11:09:59;;;;;;;5.47;3.60;;;;;;;11.00;50.72;99859.28;4983645;28;20041;-69
2023/10/25 11:12:25;;;;;;;12.48;4.07;;;;;;;11.31;50.30;99857.50;4978733;28;20043;-70
2023/10/25 11:14:51;;;;;;;9.50;4.05;;;;;;;11.09;49.64;99850.06;4978858;28;20023;-70
2023/10/25 11:17:16;;;;;;;5.43;3.30;;;;;;;11.01;49.60;99847.88;4978758;28;20529;-70
2023/10/25 11:19:45;;;;;;;5.53;3.80;;;;;;;10.99;49.33;99847.13;4981940;28;20049;-70
2023/10/25 11:22:11;;;;;;;10.48;4.05;;;;;;;11.10;50.18;99840.44;4979743;28;20026;-70
2023/10/25 11:24:36;;;;;;;10.10;4.60;;;;;;;11.34;49.87;99846.00;4984792;28;20559;-69
2023/10/25 11:27:03;;;;;;;8.38;3.80;;;;;;;11.28;49.58;99844.56;4979697;28;20069;-70
2023/10/25 11:29:31;;;;;;;6.38;3.78;;;;;;;11.24;48.98;99840.47;4978375;28;20042;-70
2023/10/25 11:32:00;;;;;;;9.65;3.83;;;;;;;11.12;49.50;99843.81;4976614;28;20060;-70
2023/10/25 11:34:30;;;;;;;9.27;4.25;;;;;;;11.45;48.95;99826.09;4978034;28;20046;-70
2023/10/25 11:36:56;;;;;;;8.20;3.45;;;;;;;11.73;48.72;99824.44;4977764;28;20054;-71